Time;durP1;ratioP1;P1;durP2;ratioP2;P2;SDS_P1;SDS_P2;PMS_P1;PMS_P2;Temp;Humidity;BMP_temperature;BMP_pressure;BME280_temperature;BME280_humidity;BME280_pressure;Samples;Min_cycle;Max_cycle;Signal;HPM_P1;HPM_P2
2023/10/19 00:01:58;;;;;;;8.20;1.67;;;15.80;99.90;;;;;;5100911;28;20111;-74
2023/10/19 00:04:32;;;;;;;11.18;1.60;;;15.80;99.90;;;;;;5099440;28;20020;-75
2023/10/19 00:06:57;;;;;;;11.57;1.50;;;15.80;99.90;;;;;;5099769;28;20074;-74
2023/10/19 00:09:23;;;;;;;9.48;1.20;;;15.80;99.90;;;;;;5104610;28;20019;-75
2023/10/19 00:11:51;;;;;;;7.57;1.30;;;15.90;99.90;;;;;;5110204;28;20028;-73
2023/10/19 00:14:18;;;;;;;6.63;1.38;;;15.90;99.90;;;;;;5100732;28;20020;-73
2023/10/19 00:16:53;;;;;;;11.07;1.65;;;15.90;99.90;;;;;;5091229;28;20496;-72
2023/10/19 00:19:19;;;;;;;5.57;1.13;;;15.90;99.90;;;;;;5100239;28;20020;-73
2023/10/19 00:21:54;;;;;;;7.25;1.50;;;15.90;99.90;;;;;;5100321;28;20024;-73
2023/10/19 00:24:22;;;;;;;5.43;1.10;;;16.00;99.90;;;;;;5100447;28;20018;-73
2023/10/19 00:26:49;;;;;;;7.47;1.30;;;16.00;99.90;;;;;;5098926;28;20112;-73
2023/10/19 00:29:30;;;;;;;10.15;1.40;;;16.00;99.90;;;;;;5100466;28;20016;-73
2023/10/19 00:31:56;;;;;;;8.18;1.17;;;16.00;99.90;;;;;;5099064;28;20038;-73
2023/10/19 00:34:22;;;;;;;7.50;1.25;;;16.00;99.90;;;;;;5100500;28;20019;-72
2023/10/19 00:36:50;;;;;;;5.68;1.10;;;16.10;99.90;;;;;;5100185;28;20024;-73
2023/10/19 00:39:21;;;;;;;5.53;1.30;;;16.10;99.90;;;;;;5100232;28;20484;-73
2023/10/19 00:41:47;;;;;;;8.65;1.27;;;16.10;99.90;;;;;;5097335;28;20016;-73
2023/10/19 00:44:17;;;;;;;6.00;1.02;;;16.10;99.90;;;;;;5100306;28;20087;-72
2023/10/19 00:46:49;;;;;;;9.57;1.58;;;16.20;99.90;;;;;;5099187;28;20400;-73
2023/10/19 00:49:15;;;;;;;9.48;1.40;;;16.20;99.90;;;;;;5098607;28;20031;-73
2023/10/19 00:54:37;;;;;;;7.90;1.45;;;16.20;99.90;;;;;;5100216;28;20067;-73
2023/10/19 00:57:13;;;;;;;7.30;1.25;;;16.20;99.90;;;;;;5100052;28;20020;-73
2023/10/19 00:59:55;;;;;;;11.13;1.48;;;16.20;99.90;;;;;;5101263;28;20032;-73
2023/10/19 01:02:28;;;;;;;6.55;1.25;;;16.20;99.90;;;;;;5120311;28;20023;-73
2023/10/19 01:05:04;;;;;;;;;;;16.30;99.90;;;;;;5120693;28;20079;-73
2023/10/19 01:07:33;;;;;;;6.82;1.10;;;16.20;99.90;;;;;;5120155;28;20288;-73
2023/10/19 01:10:00;;;;;;;6.90;1.17;;;16.30;99.90;;;;;;5101530;28;20023;-73
2023/10/19 01:15:06;;;;;;;6.65;1.30;;;16.30;99.90;;;;;;5120116;28;20349;-73
2023/10/19 01:17:38;;;;;;;5.55;1.20;;;16.30;99.90;;;;;;5107884;28;20028;-72
2023/10/19 01:20:13;;;;;;;10.32;1.27;;;16.30;99.90;;;;;;5118585;28;20110;-73
2023/10/19 01:28:22;;;;;;;5.43;1.02;;;16.30;99.90;;;;;;5118273;28;20446;-72
2023/10/19 01:30:51;;;;;;;8.30;1.48;;;16.30;99.90;;;;;;5116939;28;20012;-73
2023/10/19 01:33:21;;;;;;;6.72;1.35;;;16.30;99.90;;;;;;5101816;28;20096;-72
2023/10/19 01:38:32;;;;;;;6.78;1.02;;;16.30;99.90;;;;;;5117088;28;20148;-75
2023/10/19 01:41:06;;;;;;;7.20;1.35;;;16.20;99.90;;;;;;5101396;28;20060;-75
2023/10/19 01:43:32;;;;;;;6.20;1.15;;;16.30;99.90;;;;;;5118794;28;20072;-75
2023/10/19 01:46:04;;;;;;;4.85;1.17;;;16.30;99.90;;;;;;5118703;28;20503;-74
2023/10/19 01:48:33;;;;;;;3.70;1.00;;;16.30;99.90;;;;;;5118575;28;20088;-74
2023/10/19 01:51:04;;;;;;;6.75;1.50;;;16.20;99.90;;;;;;5097969;28;20032;-74
2023/10/19 01:53:29;;;;;;;8.25;1.13;;;16.30;99.90;;;;;;5100857;28;20019;-73
2023/10/19 01:55:58;;;;;;;6.20;1.33;;;16.30;99.90;;;;;;5118328;28;20028;-74
2023/10/19 01:58:25;;;;;;;7.80;1.60;;;16.30;99.90;;;;;;5116961;28;20007;-74
2023/10/19 02:00:59;;;;;;;4.57;1.05;;;16.30;99.90;;;;;;5117911;28;20059;-73
2023/10/19 02:03:28;;;;;;;7.20;1.10;;;16.30;99.90;;;;;;5118660;28;20020;-73
2023/10/19 02:06:00;;;;;;;5.65;1.10;;;16.30;99.90;;;;;;5118459;28;20396;-73
2023/10/19 02:08:26;;;;;;;7.70;1.20;;;16.30;99.90;;;;;;5099892;28;20024;-73
2023/10/19 02:10:55;;;;;;;6.00;1.20;;;16.30;99.90;;;;;;5118137;27;20020;-73
2023/10/19 02:13:21;;;;;;;8.00;1.35;;;16.30;99.90;;;;;;5098203;28;20027;-73
2023/10/19 02:15:46;;;;;;;6.20;1.20;;;16.30;99.90;;;;;;5118166;28;20023;-73
2023/10/19 02:18:12;;;;;;;5.82;1.20;;;16.20;99.90;;;;;;5118290;28;20047;-73
2023/10/19 02:20:41;;;;;;;4.70;1.50;;;16.30;99.90;;;;;;5118297;28;20043;-73
2023/10/19 02:23:11;;;;;;;6.63;1.25;;;16.30;99.90;;;;;;5117450;28;20020;-73
2023/10/19 02:25:37;;;;;;;8.32;1.30;;;16.20;99.90;;;;;;5117996;28;20020;-73
2023/10/19 02:28:06;;;;;;;5.88;1.00;;;16.20;99.90;;;;;;5118507;28;20020;-73
2023/10/19 02:30:33;;;;;;;4.30;0.80;;;16.20;99.90;;;;;;5100173;28;20028;-73
2023/10/19 02:33:03;;;;;;;4.88;1.08;;;16.10;99.90;;;;;;5100328;28;20020;-74
2023/10/19 02:35:29;;;;;;;4.85;0.82;;;16.10;99.90;;;;;;5100088;28;20034;-73
2023/10/19 02:37:54;;;;;;;5.97;1.10;;;16.10;99.90;;;;;;5118301;28;20019;-74
2023/10/19 02:40:22;;;;;;;3.85;0.70;;;16.10;99.90;;;;;;5099625;28;20035;-73
2023/10/19 02:42:48;;;;;;;2.58;0.73;;;16.00;99.90;;;;;;5118289;28;20456;-74
2023/10/19 02:45:18;;;;;;;3.22;0.65;;;16.00;99.90;;;;;;5118227;28;20030;-73
2023/10/19 02:47:45;;;;;;;3.10;0.63;;;15.90;99.90;;;;;;5117987;28;20058;-73
2023/10/19 02:50:16;;;;;;;1.55;0.55;;;15.80;99.90;;;;;;5118016;28;20058;-73
2023/10/19 02:52:43;;;;;;;1.27;0.40;;;15.70;99.90;;;;;;5100859;28;20019;-73
2023/10/19 02:55:09;;;;;;;1.88;0.38;;;15.70;99.90;;;;;;5118002;28;20050;-74
2023/10/19 02:57:37;;;;;;;0.82;0.30;;;15.70;99.90;;;;;;5118319;28;20088;-74
2023/10/19 03:00:11;;;;;;;0.52;0.22;;;15.60;99.90;;;;;;5096539;28;20044;-74
2023/10/19 03:02:38;;;;;;;0.65;0.20;;;15.60;99.90;;;;;;5096335;28;20150;-74
2023/10/19 03:05:14;;;;;;;0.85;0.25;;;15.60;99.90;;;;;;5097805;28;20028;-73
2023/10/19 03:07:43;;;;;;;2.03;0.20;;;15.60;99.90;;;;;;5096216;28;20093;-73
2023/10/19 03:10:23;;;;;;;0.95;0.20;;;15.60;99.90;;;;;;5097173;28;20016;-73
2023/10/19 03:12:50;;;;;;;1.65;0.50;;;15.60;99.90;;;;;;5096772;28;20020;-73
2023/10/19 03:15:19;;;;;;;2.95;0.30;;;15.60;99.90;;;;;;5097338;28;20043;-73
2023/10/19 03:17:44;;;;;;;1.30;0.20;;;15.50;99.90;;;;;;5096291;28;20103;-73
2023/10/19 03:20:11;;;;;;;1.90;0.40;;;15.50;99.90;;;;;;5097458;28;20059;-74
2023/10/19 03:22:38;;;;;;;1.02;0.30;;;15.50;99.90;;;;;;5097661;28;20020;-73
2023/10/19 03:27:49;;;;;;;0.30;0.10;;;15.50;99.90;;;;;;5097588;28;20027;-74
2023/10/19 03:30:16;;;;;;;1.20;0.30;;;15.50;99.90;;;;;;5097301;28;20393;-74
2023/10/19 03:32:41;;;;;;;1.80;0.38;;;15.50;99.90;;;;;;5096057;28;20057;-74
2023/10/19 03:35:07;;;;;;;2.05;0.43;;;15.50;99.90;;;;;;5095970;28;20024;-74
2023/10/19 03:37:35;;;;;;;2.22;0.30;;;15.50;99.90;;;;;;5097447;28;20024;-75
2023/10/19 03:40:06;;;;;;;1.30;0.30;;;15.50;99.90;;;;;;5096811;28;20035;-74
2023/10/19 03:42:32;;;;;;;1.83;0.30;;;15.50;99.90;;;;;;5095814;28;20053;-73
2023/10/19 03:44:59;;;;;;;1.48;0.30;;;15.50;99.90;;;;;;5095860;28;20039;-74
2023/10/19 03:47:27;;;;;;;1.30;0.50;;;15.50;99.90;;;;;;5097234;28;20028;-74
2023/10/19 03:49:53;;;;;;;1.38;0.30;;;15.50;99.90;;;;;;5095543;28;20020;-73
2023/10/19 03:54:44;;;;;;;1.80;0.30;;;15.60;99.90;;;;;;5096810;28;20023;-73
2023/10/19 03:57:12;;;;;;;1.77;0.30;;;15.60;99.90;;;;;;5097168;28;20099;-72
2023/10/19 03:59:41;;;;;;;2.90;0.65;;;15.60;99.90;;;;;;5097122;28;20404;-73
2023/10/19 04:02:13;;;;;;;1.67;0.40;;;15.70;99.90;;;;;;5117568;28;20024;-73
2023/10/19 04:04:43;;;;;;;4.35;0.50;;;15.70;99.90;;;;;;5117355;28;20024;-73
2023/10/19 04:07:11;;;;;;;4.50;0.45;;;15.70;99.90;;;;;;5117377;28;20065;-73
2023/10/19 04:09:56;;;;;;;2.50;0.40;;;15.70;99.90;;;;;;5117069;28;20016;-72
2023/10/19 04:12:23;;;;;;;2.70;0.60;;;15.70;99.90;;;;;;5098953;28;20020;-73
2023/10/19 04:14:48;;;;;;;2.92;0.45;;;15.80;99.90;;;;;;5097098;28;20050;-73
2023/10/19 04:17:14;;;;;;;3.50;0.30;;;15.80;99.90;;;;;;5096828;28;20472;-73
2023/10/19 04:19:40;;;;;;;2.17;0.70;;;15.80;99.90;;;;;;5097047;28;20020;-73
2023/10/19 04:22:05;;;;;;;1.42;0.40;;;15.70;99.90;;;;;;5096846;28;20055;-73
2023/10/19 04:24:33;;;;;;;2.65;0.55;;;15.60;99.90;;;;;;5097410;28;20024;-73
2023/10/19 04:26:59;;;;;;;1.55;0.30;;;15.60;99.90;;;;;;5098942;28;20420;-73
2023/10/19 04:29:27;;;;;;;1.33;0.35;;;15.60;99.90;;;;;;5099380;28;20031;-73
2023/10/19 04:31:56;;;;;;;2.42;0.40;;;15.50;99.90;;;;;;5100557;28;20052;-73
2023/10/19 04:34:23;;;;;;;2.08;0.35;;;15.50;99.90;;;;;;5100703;28;20024;-73
2023/10/19 04:36:49;;;;;;;0.80;0.30;;;15.50;99.90;;;;;;5100376;28;20020;-73
2023/10/19 04:39:15;;;;;;;1.58;0.25;;;15.50;99.90;;;;;;5100315;28;20077;-73
2023/10/19 04:41:41;;;;;;;1.85;0.40;;;15.50;99.90;;;;;;5099927;28;20046;-72
2023/10/19 04:44:10;;;;;;;2.25;0.30;;;15.50;99.90;;;;;;5100307;28;20024;-72
2023/10/19 04:46:36;;;;;;;2.28;0.32;;;15.40;99.90;;;;;;5100248;28;20527;-72
2023/10/19 04:49:03;;;;;;;2.45;0.50;;;15.40;99.90;;;;;;5100253;28;20047;-72
2023/10/19 04:51:29;;;;;;;2.78;0.60;;;15.40;99.90;;;;;;5100245;28;20030;-72
2023/10/19 04:53:55;;;;;;;1.00;0.38;;;15.30;99.90;;;;;;5100170;28;20043;-73
2023/10/19 04:56:21;;;;;;;1.48;0.43;;;15.30;99.90;;;;;;5099802;28;20024;-73
2023/10/19 04:58:47;;;;;;;1.20;0.30;;;15.30;99.90;;;;;;5100105;28;20077;-73
2023/10/19 05:01:13;;;;;;;1.63;0.50;;;15.20;99.90;;;;;;5114652;28;20530;-72
2023/10/19 05:03:39;;;;;;;1.58;0.40;;;15.20;99.90;;;;;;5120174;28;20016;-72
2023/10/19 05:06:04;;;;;;;1.50;0.30;;;15.10;99.90;;;;;;5120457;28;20030;-72
2023/10/19 05:08:32;;;;;;;1.65;0.40;;;15.10;99.90;;;;;;5120036;28;20521;-72
2023/10/19 05:10:59;;;;;;;2.10;0.40;;;15.00;99.90;;;;;;5119925;28;20020;-72
2023/10/19 05:13:26;;;;;;;3.00;0.50;;;15.00;99.90;;;;;;5120282;28;20054;-73
2023/10/19 05:15:53;;;;;;;1.67;0.40;;;15.00;99.90;;;;;;5101629;28;20545;-73
2023/10/19 05:18:20;;;;;;;2.05;0.60;;;14.90;99.90;;;;;;5101819;28;20051;-73
2023/10/19 05:20:46;;;;;;;3.70;0.40;;;14.90;99.90;;;;;;5120012;28;20188;-73
2023/10/19 05:23:13;;;;;;;2.67;0.40;;;15.00;99.90;;;;;;5120039;28;20098;-73
2023/10/19 05:25:39;;;;;;;2.58;0.30;;;14.90;99.90;;;;;;5119724;28;20106;-73
2023/10/19 05:28:05;;;;;;;0.77;0.30;;;14.90;99.90;;;;;;5119864;28;20028;-73
2023/10/19 05:30:32;;;;;;;1.60;0.30;;;14.90;99.90;;;;;;5119794;28;20480;-74
2023/10/19 05:32:59;;;;;;;1.40;0.30;;;14.90;99.90;;;;;;5101528;28;20016;-74
2023/10/19 05:35:26;;;;;;;2.33;0.57;;;14.90;99.90;;;;;;5118939;28;20027;-74
2023/10/19 05:37:56;;;;;;;3.03;0.43;;;14.90;99.90;;;;;;5100986;28;20020;-75
2023/10/19 05:40:29;;;;;;;2.08;0.55;;;14.80;99.90;;;;;;5118555;28;20049;-74
2023/10/19 05:42:56;;;;;;;4.23;0.50;;;14.80;99.90;;;;;;5118966;28;20197;-74
2023/10/19 05:45:22;;;;;;;1.30;0.30;;;14.80;99.90;;;;;;5119534;28;20024;-73
2023/10/19 05:47:47;;;;;;;1.80;0.55;;;14.80;99.90;;;;;;5119117;28;20118;-72
2023/10/19 05:50:16;;;;;;;5.80;0.68;;;14.80;99.90;;;;;;5119346;28;20068;-73
2023/10/19 05:52:43;;;;;;;1.90;0.40;;;14.80;99.90;;;;;;5119185;28;20452;-73
2023/10/19 05:55:11;;;;;;;2.63;0.60;;;14.80;99.90;;;;;;5119115;28;20027;-73
2023/10/19 05:57:40;;;;;;;4.35;0.68;;;14.80;99.90;;;;;;5100579;28;20055;-74
2023/10/19 06:00:12;;;;;;;2.88;0.50;;;14.80;99.90;;;;;;5118767;28;20040;-76
2023/10/19 06:02:46;;;;;;;3.63;0.60;;;14.80;99.90;;;;;;5114826;27;20031;-75
2023/10/19 06:05:16;;;;;;;5.03;0.80;;;14.80;99.90;;;;;;5119549;28;20148;-75
2023/10/19 06:07:45;;;;;;;2.17;0.50;;;14.80;99.90;;;;;;5119000;28;20024;-74
2023/10/19 06:10:20;;;;;;;2.85;0.75;;;14.80;99.90;;;;;;5128269;27;20019;-74
2023/10/19 06:12:47;;;;;;;3.67;0.52;;;14.80;99.90;;;;;;5100665;28;20487;-74
2023/10/19 06:15:14;;;;;;;5.05;0.65;;;14.80;99.90;;;;;;5100485;28;20085;-74
2023/10/19 06:17:40;;;;;;;2.28;0.50;;;14.80;99.90;;;;;;5100317;28;20054;-74
2023/10/19 06:20:28;;;;;;;1.73;0.65;;;14.80;99.90;;;;;;5118729;28;20051;-75
2023/10/19 06:22:56;;;;;;;2.88;0.55;;;14.80;99.90;;;;;;5118829;28;20078;-75
2023/10/19 06:25:23;;;;;;;3.53;0.77;;;14.80;99.90;;;;;;5099802;28;20542;-75
2023/10/19 06:27:50;;;;;;;3.70;0.63;;;14.80;99.90;;;;;;5118598;28;20368;-74
2023/10/19 06:30:22;;;;;;;3.25;0.52;;;14.80;99.90;;;;;;5118711;28;20505;-74
2023/10/19 06:32:51;;;;;;;2.63;0.55;;;14.80;99.90;;;;;;5118793;28;20435;-74
2023/10/19 06:35:18;;;;;;;5.10;0.77;;;14.80;99.90;;;;;;5118569;28;20168;-73
2023/10/19 06:37:44;;;;;;;2.17;0.50;;;14.80;99.90;;;;;;5118759;28;20063;-75
2023/10/19 06:40:16;;;;;;;3.40;0.80;;;14.90;99.90;;;;;;5117905;28;20023;-74
2023/10/19 06:42:45;;;;;;;4.90;0.82;;;14.90;99.90;;;;;;5118236;28;20035;-75
2023/10/19 06:45:15;;;;;;;2.83;0.52;;;15.00;99.90;;;;;;5118472;28;20430;-74
2023/10/19 06:47:42;;;;;;;5.70;0.90;;;15.10;99.90;;;;;;5118045;28;20059;-77
2023/10/19 06:50:10;;;;;;;6.85;0.70;;;15.10;99.90;;;;;;5116727;28;20550;-74
2023/10/19 06:52:36;;;;;;;2.30;0.63;;;15.10;99.90;;;;;;5117642;28;20024;-74
2023/10/19 06:55:04;;;;;;;2.15;0.50;;;15.20;99.90;;;;;;5098447;28;20019;-74
2023/10/19 06:57:36;;;;;;;2.00;0.60;;;15.30;99.90;;;;;;5117078;28;20035;-74
2023/10/19 07:00:10;;;;;;;3.50;0.73;;;15.30;99.90;;;;;;5097705;28;20043;-74
2023/10/19 07:02:37;;;;;;;5.90;0.90;;;15.40;99.90;;;;;;5098683;28;20110;-75
2023/10/19 07:05:03;;;;;;;5.78;0.82;;;15.50;99.90;;;;;;5117653;28;20020;-68
2023/10/19 07:07:29;;;;;;;4.63;0.70;;;15.50;99.90;;;;;;5117324;28;20035;-67
2023/10/19 07:09:55;;;;;;;4.18;1.55;;;15.60;99.90;;;;;;5114121;27;20030;-69
2023/10/19 07:12:21;;;;;;;4.25;1.00;;;15.70;99.90;;;;;;5121341;27;20020;-68
2023/10/19 07:14:46;;;;;;;4.05;1.10;;;15.90;99.90;;;;;;5117179;28;20545;-68
2023/10/19 07:17:12;;;;;;;5.18;0.98;;;16.10;99.90;;;;;;5117283;28;20110;-68
2023/10/19 07:19:43;;;;;;;5.32;1.17;;;16.20;99.90;;;;;;5115930;28;20027;-68
2023/10/19 07:22:09;;;;;;;5.55;1.40;;;16.20;99.90;;;;;;5117167;28;20028;-69
2023/10/19 07:24:37;;;;;;;3.25;1.00;;;16.30;99.90;;;;;;5117246;28;20027;-71
2023/10/19 07:27:07;;;;;;;6.53;1.30;;;16.30;99.90;;;;;;5116963;28;20099;-69
2023/10/19 07:29:35;;;;;;;4.90;1.10;;;16.30;99.90;;;;;;5115557;28;20572;-72
2023/10/19 07:32:02;;;;;;;5.30;1.33;;;16.40;99.90;;;;;;5117055;28;20024;-68
2023/10/19 07:34:33;;;;;;;6.95;1.30;;;16.40;99.90;;;;;;5117734;28;20117;-68
2023/10/19 07:36:59;;;;;;;3.67;1.02;;;16.30;99.90;;;;;;5117555;28;20080;-68
2023/10/19 07:39:29;;;;;;;6.00;1.30;;;16.30;99.90;;;;;;5117409;28;20020;-68
2023/10/19 07:41:55;;;;;;;5.50;1.42;;;16.30;99.90;;;;;;5117165;28;20661;-68
2023/10/19 07:44:21;;;;;;;4.93;1.02;;;16.30;99.90;;;;;;5117527;28;20028;-68
2023/10/19 07:46:47;;;;;;;5.30;1.10;;;16.30;99.90;;;;;;5117489;28;20042;-68
2023/10/19 07:49:15;;;;;;;4.15;0.93;;;16.30;99.90;;;;;;5117558;28;20023;-67
2023/10/19 07:51:45;;;;;;;5.68;0.98;;;16.40;99.90;;;;;;5117414;28;20059;-68
2023/10/19 07:54:12;;;;;;;4.95;1.10;;;16.40;99.90;;;;;;5099015;28;20020;-69
2023/10/19 07:56:37;;;;;;;3.83;0.80;;;16.50;99.90;;;;;;5117236;28;20019;-68
2023/10/19 07:59:03;;;;;;;7.22;0.98;;;16.60;99.90;;;;;;5118789;28;20034;-68
2023/10/19 08:01:29;;;;;;;4.90;1.15;;;16.60;99.90;;;;;;5121303;28;20059;-69
2023/10/19 08:03:54;;;;;;;3.55;0.80;;;16.80;99.90;;;;;;5121515;28;20051;-69
2023/10/19 08:06:20;;;;;;;6.68;1.35;;;16.90;99.90;;;;;;5121354;28;20024;-68
2023/10/19 08:08:46;;;;;;;4.60;0.80;;;16.90;99.90;;;;;;5121160;27;20413;-69
2023/10/19 08:11:12;;;;;;;6.55;1.30;;;16.90;99.90;;;;;;5115894;28;20020;-68
2023/10/19 08:13:39;;;;;;;4.75;1.08;;;16.90;99.90;;;;;;5120779;28;20053;-69
2023/10/19 08:16:07;;;;;;;6.30;1.17;;;17.00;99.90;;;;;;5102058;28;20019;-69
2023/10/19 08:18:35;;;;;;;6.82;1.17;;;17.10;99.90;;;;;;5100999;28;20039;-68
2023/10/19 08:21:01;;;;;;;5.15;0.90;;;17.20;99.90;;;;;;5118297;28;20038;-69
2023/10/19 08:23:27;;;;;;;7.13;1.30;;;17.20;99.90;;;;;;5120195;28;20027;-68
2023/10/19 08:25:54;;;;;;;8.02;1.45;;;17.20;99.90;;;;;;5120193;28;20445;-68
2023/10/19 08:28:20;;;;;;;4.53;1.10;;;17.20;99.90;;;;;;5119001;28;20027;-67
2023/10/19 08:30:56;;;;;;;7.03;1.30;;;17.30;99.90;;;;;;5120699;28;20124;-66
2023/10/19 08:33:25;;;;;;;5.63;1.23;;;17.40;99.90;;;;;;5120853;28;20024;-67
2023/10/19 08:35:53;;;;;;;4.47;0.95;;;17.40;99.90;;;;;;5120811;28;20016;-68
2023/10/19 08:38:19;;;;;;;5.45;1.33;;;17.30;99.90;;;;;;5120750;28;20491;-69
2023/10/19 08:40:45;;;;;;;8.50;1.20;;;17.30;99.90;;;;;;5110605;28;20050;-68
2023/10/19 08:43:13;;;;;;;6.82;1.40;;;17.20;99.90;;;;;;5101943;28;20027;-67
2023/10/19 08:45:39;;;;;;;4.95;1.38;;;17.30;99.90;;;;;;5120607;28;20503;-68
2023/10/19 08:48:05;;;;;;;7.55;1.70;;;17.40;99.90;;;;;;5101986;28;20038;-63
2023/10/19 08:50:33;;;;;;;13.82;3.53;;;17.50;99.90;;;;;;5117900;27;20463;-69
2023/10/19 08:53:05;;;;;;;10.25;2.75;;;17.60;99.90;;;;;;5120129;28;20032;-71
2023/10/19 08:55:31;;;;;;;7.32;2.47;;;17.70;99.90;;;;;;5119862;28;20026;-69
2023/10/19 08:58:00;;;;;;;6.78;2.17;;;17.70;99.90;;;;;;5118928;28;20019;-68
2023/10/19 09:00:26;;;;;;;6.45;1.88;;;17.80;99.90;;;;;;5118137;28;20048;-69
2023/10/19 09:02:56;;;;;;;4.68;1.45;;;17.70;99.90;;;;;;5119027;28;20024;-69
2023/10/19 09:05:22;;;;;;;6.82;1.60;;;17.60;99.90;;;;;;5107372;28;20027;-68
2023/10/19 09:07:54;;;;;;;5.35;1.40;;;17.60;99.90;;;;;;5119595;28;20087;-69
2023/10/19 09:10:25;;;;;;;4.75;0.90;;;17.50;99.90;;;;;;5119112;27;20365;-72
2023/10/19 09:13:22;;;;;;;7.68;1.38;;;17.50;99.90;;;;;;5119283;27;20020;-70
2023/10/19 09:15:55;;;;;;;4.03;1.10;;;17.50;99.90;;;;;;5117451;28;20039;-70
2023/10/19 09:18:27;;;;;;;5.40;1.02;;;17.50;99.90;;;;;;5116345;28;20027;-72
2023/10/19 09:20:53;;;;;;;5.77;1.57;;;17.50;99.90;;;;;;5126062;27;20035;-75
2023/10/19 09:23:23;;;;;;;6.05;1.45;;;17.50;99.90;;;;;;5128849;27;20481;-74
2023/10/19 09:25:49;;;;;;;5.45;1.38;;;17.60;99.90;;;;;;5113379;27;20024;-72
2023/10/19 09:28:16;;;;;;;4.43;1.17;;;17.60;99.90;;;;;;5100468;28;20039;-73
2023/10/19 09:30:43;;;;;;;5.07;1.67;;;17.60;99.90;;;;;;5118422;28;20023;-75
2023/10/19 09:33:09;;;;;;;4.82;1.67;;;17.80;99.90;;;;;;5106067;28;20020;-72
2023/10/19 09:35:37;;;;;;;6.18;1.70;;;17.90;99.90;;;;;;5105817;27;20056;-73
2023/10/19 09:38:06;;;;;;;4.80;1.27;;;17.90;99.90;;;;;;5126325;27;20395;-73
2023/10/19 09:40:33;;;;;;;3.33;1.10;;;17.90;99.90;;;;;;5118717;28;20357;-74
2023/10/19 09:43:02;;;;;;;5.70;1.10;;;17.80;99.90;;;;;;5116816;28;20024;-75
2023/10/19 09:45:32;;;;;;;6.03;1.38;;;17.90;99.90;;;;;;5118447;28;20073;-75
2023/10/19 09:48:05;;;;;;;4.72;1.13;;;17.90;99.90;;;;;;5118206;28;20532;-74
2023/10/19 09:50:30;;;;;;;;;;;18.10;99.90;;;;;;5101402;27;20099;-72
2023/10/19 09:52:58;;;;;;;6.47;1.50;;;18.20;99.90;;;;;;5115731;27;19912;-71
2023/10/19 09:55:37;;;;;;;5.22;1.40;;;18.40;99.90;;;;;;5126943;27;20015;-73
2023/10/19 09:58:08;;;;;;;5.97;1.30;;;18.60;99.90;;;;;;5120905;27;20020;-72
2023/10/19 10:00:34;;;;;;;7.13;1.67;;;18.70;99.90;;;;;;5117189;27;20130;-69
2023/10/19 10:03:02;;;;;;;7.07;1.50;;;18.70;99.90;;;;;;5115512;27;20102;-70
2023/10/19 10:05:43;;;;;;;5.95;1.70;;;18.80;99.90;;;;;;5112584;27;20026;-70
2023/10/19 10:08:18;;;;;;;6.60;1.60;;;18.90;99.90;;;;;;5114704;27;20024;-67
2023/10/19 10:10:50;;;;;;;6.90;1.48;;;18.90;99.90;;;;;;5118038;27;20035;-69
2023/10/19 10:13:26;;;;;;;8.35;1.67;;;18.90;99.90;;;;;;5118111;28;20383;-68
2023/10/19 10:15:55;;;;;;;9.63;1.92;;;18.90;99.90;;;;;;5117854;28;20373;-70
2023/10/19 10:18:24;;;;;;;8.05;1.90;;;18.90;99.90;;;;;;5099999;28;20031;-68
2023/10/19 10:21:16;;;;;;;6.38;1.50;;;18.80;99.90;;;;;;5116383;27;20035;-69
2023/10/19 10:23:54;;;;;;;7.38;1.90;;;18.60;99.90;;;;;;5118085;27;20430;-69
2023/10/19 10:26:24;;;;;;;6.93;1.33;;;18.60;99.90;;;;;;5125976;27;20092;-71
2023/10/19 10:29:23;;;;;;;10.27;1.40;;;18.50;99.90;;;;;;5117471;27;20031;-71
2023/10/19 10:31:50;;;;;;;8.80;1.58;;;18.40;99.90;;;;;;5091530;28;20036;-70
2023/10/19 10:34:34;;;;;;;6.63;1.40;;;18.30;99.90;;;;;;5117848;27;20051;-70
2023/10/19 10:37:10;;;;;;;8.45;1.58;;;18.20;99.90;;;;;;5117377;28;20062;-69
2023/10/19 10:39:38;;;;;;;8.77;1.83;;;18.20;99.90;;;;;;5117749;28;20012;-70
2023/10/19 10:42:05;;;;;;;7.47;1.48;;;18.10;99.90;;;;;;5116056;28;20055;-71
2023/10/19 10:44:49;;;;;;;8.38;1.70;;;18.10;99.90;;;;;;5117515;27;20573;-70
2023/10/19 10:47:24;;;;;;;5.70;1.20;;;18.10;99.90;;;;;;5106377;28;20111;-70
2023/10/19 10:49:57;;;;;;;6.80;1.30;;;18.10;99.90;;;;;;5099584;28;20043;-70
2023/10/19 10:52:36;;;;;;;6.90;1.48;;;18.10;99.90;;;;;;5118060;28;20030;-71
2023/10/19 10:55:14;;;;;;;9.20;1.30;;;18.10;99.90;;;;;;5116075;28;20023;-71
2023/10/19 10:57:41;;;;;;;6.25;1.48;;;18.00;99.90;;;;;;5099241;28;20020;-71
2023/10/19 11:00:14;;;;;;;6.35;1.40;;;18.00;99.90;;;;;;5110312;28;20455;-71
2023/10/19 11:02:43;;;;;;;6.18;1.50;;;17.90;99.90;;;;;;5117467;28;20387;-71
2023/10/19 11:05:13;;;;;;;6.82;1.42;;;17.80;99.90;;;;;;5117939;28;20024;-71
2023/10/19 11:08:00;;;;;;;6.75;1.65;;;17.70;99.90;;;;;;5112492;28;20428;-71
2023/10/19 11:10:27;;;;;;;3.67;0.98;;;17.40;99.90;;;;;;5106939;28;20057;-69
2023/10/19 11:13:03;;;;;;;4.15;0.90;;;17.30;99.90;;;;;;5099566;28;20023;-69
2023/10/19 11:15:28;;;;;;;3.05;0.60;;;17.10;99.90;;;;;;5111760;27;20044;-72
2023/10/19 11:17:54;;;;;;;3.90;0.68;;;17.00;99.90;;;;;;5116650;28;20035;-71
2023/10/19 11:20:24;;;;;;;2.17;0.60;;;17.00;99.90;;;;;;5117265;28;20027;-69
2023/10/19 11:22:52;;;;;;;5.53;0.70;;;17.00;99.90;;;;;;5123598;27;20032;-69
2023/10/19 11:25:19;;;;;;;3.42;0.80;;;17.00;99.90;;;;;;5110283;28;20092;-67
2023/10/19 11:27:45;;;;;;;3.10;0.63;;;17.00;99.90;;;;;;5116685;28;20052;-67
2023/10/19 11:30:11;;;;;;;2.10;0.60;;;17.10;99.90;;;;;;5115869;28;20535;-67
2023/10/19 11:32:39;;;;;;;3.30;0.90;;;17.10;99.90;;;;;;5095831;28;20023;-68
2023/10/19 11:35:09;;;;;;;1.90;0.70;;;17.10;99.90;;;;;;5116921;28;20031;-68
2023/10/19 11:37:50;;;;;;;3.15;0.73;;;17.20;99.90;;;;;;5117635;28;20107;-68
2023/10/19 11:40:16;;;;;;;3.05;0.70;;;17.30;99.90;;;;;;5117101;28;20031;-68
2023/10/19 11:42:42;;;;;;;3.47;0.80;;;17.30;99.90;;;;;;5117455;28;20032;-67
2023/10/19 11:45:08;;;;;;;5.50;1.00;;;17.40;99.90;;;;;;5117502;28;20080;-68
2023/10/19 11:47:34;;;;;;;4.72;0.95;;;17.40;99.90;;;;;;5115215;28;20101;-67
2023/10/19 11:50:00;;;;;;;2.85;0.77;;;17.50;99.90;;;;;;5110030;28;20044;-69
2023/10/19 11:52:27;;;;;;;4.40;1.10;;;17.50;99.90;;;;;;5116763;28;20035;-69
2023/10/19 11:54:54;;;;;;;4.15;0.95;;;17.50;99.90;;;;;;5116889;28;20574;-69
2023/10/19 11:57:19;;;;;;;3.63;1.10;;;17.50;99.90;;;;;;5117049;28;20076;-69
2023/10/19 11:59:45;;;;;;;2.65;0.90;;;17.50;99.90;;;;;;5116867;28;20020;-68
2023/10/19 12:02:11;;;;;;;7.07;1.20;;;17.60;99.90;;;;;;5099074;28;20115;-69
2023/10/19 12:04:37;;;;;;;5.70;1.30;;;17.70;99.90;;;;;;5098917;28;20016;-69
2023/10/19 12:07:03;;;;;;;4.40;1.25;;;17.70;99.90;;;;;;5117388;28;20502;-68
2023/10/19 12:09:29;;;;;;;4.80;1.23;;;17.80;99.90;;;;;;5121728;28;20496;-68
2023/10/19 12:11:56;;;;;;;5.47;1.15;;;17.80;99.90;;;;;;5125731;28;20023;-70
2023/10/19 12:14:22;;;;;;;6.20;1.10;;;17.80;99.90;;;;;;5098828;28;20024;-69
2023/10/19 12:16:48;;;;;;;6.38;1.33;;;17.90;99.90;;;;;;5117408;28;20051;-69
2023/10/19 12:19:14;;;;;;;3.70;1.02;;;18.10;99.90;;;;;;5117137;28;20419;-69
2023/10/19 12:21:43;;;;;;;6.72;1.42;;;18.40;99.90;;;;;;5116095;28;20111;-70
2023/10/19 12:24:08;;;;;;;6.40;1.50;;;18.40;99.90;;;;;;5115879;28;20023;-70
2023/10/19 12:26:34;;;;;;;5.97;1.48;;;18.50;99.90;;;;;;5117518;28;20026;-71
2023/10/19 12:29:00;;;;;;;4.78;1.45;;;18.60;99.90;;;;;;5099188;28;20028;-71
2023/10/19 12:31:25;;;;;;;5.90;1.85;;;18.60;99.90;;;;;;5116270;28;20484;-71
2023/10/19 12:33:51;;;;;;;6.40;1.83;;;18.60;99.90;;;;;;5115939;28;20104;-71
2023/10/19 12:36:52;;;;;;;5.90;1.35;;;18.60;99.90;;;;;;5114648;28;20072;-71
2023/10/19 12:39:09;;;;;;;4.55;1.35;;;18.60;99.90;;;;;;5100637;28;20035;-72
2023/10/19 12:41:35;;;;;;;7.97;1.90;;;18.60;99.90;;;;;;5109669;28;20506;-70
2023/10/19 12:44:07;;;;;;;5.95;1.55;;;18.70;99.90;;;;;;5115021;28;20098;-70
2023/10/19 12:46:36;;;;;;;6.30;1.73;;;18.60;99.90;;;;;;5119374;28;20463;-70
2023/10/19 12:49:04;;;;;;;3.80;1.30;;;18.60;99.90;;;;;;5119607;28;20020;-71
2023/10/19 12:51:29;;;;;;;4.70;1.10;;;18.70;99.90;;;;;;5119618;28;20020;-71
2023/10/19 12:53:55;;;;;;;7.65;1.63;;;18.60;99.90;;;;;;5118549;28;20517;-71
2023/10/19 12:56:24;;;;;;;5.10;1.30;;;18.60;99.90;;;;;;5118385;28;20023;-72
2023/10/19 12:58:50;;;;;;;5.38;1.30;;;18.60;99.90;;;;;;5119388;28;20016;-72
2023/10/19 13:01:19;;;;;;;4.32;1.17;;;18.50;99.90;;;;;;5119172;28;20254;-71
2023/10/19 13:03:51;;;;;;;2.75;0.85;;;18.40;99.90;;;;;;5119441;28;20016;-71
2023/10/19 13:06:17;;;;;;;4.63;1.05;;;18.40;99.90;;;;;;5117982;28;20077;-71
2023/10/19 13:08:43;;;;;;;5.15;0.90;;;18.40;99.90;;;;;;5118966;28;20016;-70
2023/10/19 13:11:10;;;;;;;4.07;1.00;;;18.30;99.90;;;;;;5119087;28;20034;-71
2023/10/19 13:13:39;;;;;;;3.28;0.73;;;18.30;99.90;;;;;;5119076;28;20016;-72
2023/10/19 13:16:11;;;;;;;4.07;0.70;;;18.30;99.90;;;;;;5116955;28;20402;-72